N22318 KTEB-KLGA

Flight info

Callsign N22318
Flight time 0h 1m
Altitude VFR/020
Route
Aircraft C152/L-DOV/C

Departure

Time 2026-05-08 20:14
Airport Teterboro Airport (KTEB)

Arrival

Time 2026-05-08 20:15
Airport LaGuardia Airport (KLGA)
Time Latitude Longitude Altitude Speed Heading
2026-05-08 20:13 40.74585 -73.86527 1069 ft 109 kts 39°
2026-05-08 20:14 40.75099 -73.85816 939 ft 123 kts 43°
2026-05-08 20:14 40.75658 -73.85161 872 ft 78 kts 17°
2026-05-08 20:14 40.76120 -73.85042 603 ft 64 kts 353°
2026-05-08 20:14 40.76517 -73.85108 377 ft 57 kts 334°
2026-05-08 20:15 40.76885 -73.85290 260 ft 52 kts 322°
2026-05-08 20:15 40.77115 -73.85583 103 ft 45 kts 307°
2026-05-08 20:15 40.77297 -73.85896 35 ft 43 kts 295°
2026-05-08 20:15 40.77432 -73.86203 8 ft 33 kts 305°
2026-05-08 20:16 40.77535 -73.86409 7 ft 22 kts 305°
2026-05-08 20:16 40.77608 -73.86549 6 ft 15 kts 304°
2026-05-08 20:16 40.77659 -73.86667 8 ft 19 kts 297°
2026-05-08 20:16 40.77678 -73.86811 6 ft 15 kts 275°
2026-05-08 20:17 40.77680 -73.86869 6 ft 0 kts 271°
2026-05-08 20:18 40.77680 -73.86872 6 ft 3 kts 271°
2026-05-08 20:18 40.77684 -73.86978 7 ft 18 kts 252°
2026-05-08 20:18 40.77678 -73.87073 10 ft 11 kts 311°
2026-05-08 20:19 40.77722 -73.87163 12 ft 13 kts 297°
2026-05-08 20:19 40.77769 -73.87276 12 ft 16 kts 286°
2026-05-08 20:19 40.77759 -73.87425 13 ft 18 kts 249°
2026-05-08 20:19 40.77684 -73.87547 16 ft 18 kts 210°
2026-05-08 20:20 40.77605 -73.87640 17 ft 7 kts 268°
2026-05-08 20:20 40.77636 -73.87697 17 ft 10 kts 308°
2026-05-08 20:20 40.77692 -73.87816 14 ft 19 kts 302°
2026-05-08 20:20 40.77757 -73.87954 13 ft 15 kts 304°
2026-05-08 20:21 40.77772 -73.87986 14 ft 0 kts 271°
2026-05-08 20:21 40.77730 -73.88041 13 ft 11 kts 218°
2026-05-08 20:21 40.77682 -73.88106 14 ft 8 kts 217°
2026-05-08 20:21 40.77662 -73.88158 14 ft 5 kts 281°
2026-05-08 20:22 40.77663 -73.88161 14 ft 0 kts 296°